Weather at Rosegill Farm Airstrip

Public forecast

Using degrees Fahrenheit for public forecast. Weather courtesy of forecast.io.

Closest aviation weather report (METAR) to Rosegill Farm Airstrip

Report is more than 6 hours old.

Closest report is Middle Peninsula Regional Airport, 11.6 nm (21.4 km) SW. Retrieved 2020/11/01 09:15 UTC (1 month ago):

KFYJ 010915Z AUTO 00000KT 10SM OVC050 06/06 A3026 RMK AO1 T00630061

Closest aviation forecast (TAF) to Rosegill Farm Airstrip

Forecast is more than 6 hours old.

Closest forecast is Felker Army Air Field, 30.0 nm (55.5 km) S. Retrieved 2020-12-03 03:03 UTC (7 hours ago):

TAF TAF KFAF 030300Z 0303/0409 VRB06KT 9999 SKC QNH3026INS BECMG 0319/0320 22010G15KT 9999 FEW210 QNH3019INS TX10/0319Z TN00/0312Z LAST NO AMDS AFT 0304 NEXT 0311